createdAt,value
2019-02-18T00:00:12.019Z,20.9
2019-02-18T00:01:02.045Z,20.8
2019-02-18T00:01:51.650Z,20.9
2019-02-18T00:02:41.637Z,20.8
2019-02-18T00:03:32.588Z,20.8
2019-02-18T00:04:21.496Z,20.8
2019-02-18T00:05:11.856Z,20.8
2019-02-18T00:06:02.473Z,20.8
2019-02-18T00:06:52.488Z,20.8
2019-02-18T00:07:42.274Z,20.8
2019-02-18T00:08:32.325Z,20.8
2019-02-18T00:09:22.378Z,20.8
2019-02-18T00:10:12.261Z,20.8
2019-02-18T00:11:02.282Z,20.8
2019-02-18T00:11:52.326Z,20.8
2019-02-18T00:12:42.935Z,20.8
2019-02-18T00:13:32.940Z,20.8
2019-02-18T00:14:22.420Z,20.8
2019-02-18T00:15:13.140Z,20.8
2019-02-18T00:16:02.583Z,20.8
2019-02-18T00:16:52.744Z,20.8
2019-02-18T00:17:42.943Z,20.8
2019-02-18T00:18:33.613Z,20.8
2019-02-18T00:19:23.358Z,20.8
2019-02-18T00:20:12.598Z,20.8
2019-02-18T00:21:03.802Z,20.8
2019-02-18T00:21:53.240Z,20.8
2019-02-18T00:22:43.838Z,20.8
2019-02-18T00:23:33.663Z,20.8
2019-02-18T00:24:24.244Z,20.8
2019-02-18T00:25:13.510Z,20.8
2019-02-18T00:26:03.282Z,20.8
2019-02-18T00:26:53.589Z,20.8
2019-02-18T00:27:43.985Z,20.8
2019-02-18T00:28:33.707Z,20.8
2019-02-18T00:29:23.507Z,20.8
2019-02-18T00:30:13.299Z,20.8
2019-02-18T00:31:03.324Z,20.8
2019-02-18T00:31:54.476Z,20.8
2019-02-18T00:32:44.565Z,20.8
2019-02-18T00:33:34.332Z,20.8
2019-02-18T00:34:24.641Z,20.8
2019-02-18T00:35:14.536Z,20.8
2019-02-18T00:36:05.134Z,20.8
2019-02-18T00:36:54.324Z,20.8
2019-02-18T00:37:44.084Z,20.8
2019-02-18T00:38:34.683Z,20.8
2019-02-18T00:39:24.754Z,20.8
2019-02-18T00:40:15.066Z,20.8
2019-02-18T00:41:04.331Z,20.8
2019-02-18T00:41:55.635Z,20.8
2019-02-18T00:42:44.966Z,20.8
2019-02-18T00:43:35.046Z,20.8
2019-02-18T00:44:25.182Z,20.8
2019-02-18T00:45:15.218Z,20.8
2019-02-18T00:46:04.956Z,20.7
2019-02-18T00:46:54.508Z,20.7
2019-02-18T00:47:45.045Z,20.8
2019-02-18T00:48:34.824Z,20.7
2019-02-18T00:49:24.617Z,20.8
2019-02-18T00:50:14.930Z,20.8
2019-02-18T00:51:04.688Z,20.8
2019-02-18T00:51:55.065Z,20.7
2019-02-18T00:52:45.085Z,20.7
2019-02-18T00:53:36.045Z,20.7
2019-02-18T00:54:26.050Z,20.7
2019-02-18T00:55:15.577Z,20.7
2019-02-18T00:56:04.842Z,20.7
2019-02-18T00:56:55.643Z,20.7
2019-02-18T00:57:45.525Z,20.7
2019-02-18T00:58:36.107Z,20.7
2019-02-18T00:59:25.926Z,20.7
2019-02-18T01:00:16.046Z,20.7
2019-02-18T01:01:05.967Z,20.7
2019-02-18T01:01:56.050Z,20.7
2019-02-18T01:02:45.799Z,20.7
2019-02-18T01:03:36.128Z,20.7
2019-02-18T01:04:26.760Z,20.7
2019-02-18T01:05:16.360Z,20.7
2019-02-18T01:06:05.787Z,20.7
2019-02-18T01:06:56.678Z,20.7
2019-02-18T01:07:46.452Z,20.7
2019-02-18T01:08:36.544Z,20.7
2019-02-18T01:09:27.133Z,20.6
2019-02-18T01:10:16.923Z,20.7
2019-02-18T01:11:06.194Z,20.7
2019-02-18T01:11:56.980Z,20.7
2019-02-18T01:12:46.774Z,20.7
2019-02-18T01:13:37.081Z,20.7
2019-02-18T01:14:27.433Z,20.7
2019-02-18T01:15:16.986Z,20.7
2019-02-18T01:16:07.343Z,20.7
2019-02-18T01:16:56.529Z,20.7
2019-02-18T01:17:47.132Z,20.6
2019-02-18T01:18:37.460Z,20.7
2019-02-18T01:19:27.514Z,20.6
2019-02-18T01:20:17.721Z,20.6
2019-02-18T01:21:07.618Z,20.6
2019-02-18T01:21:57.376Z,20.6
2019-02-18T01:22:48.466Z,20.6
2019-02-18T01:23:38.126Z,20.6
2019-02-18T01:24:27.069Z,20.6
2019-02-18T01:25:17.189Z,20.6
2019-02-18T01:26:07.996Z,20.6
2019-02-18T01:26:57.735Z,20.6
2019-02-18T01:27:47.910Z,20.6
2019-02-18T01:28:37.913Z,20.6
2019-02-18T01:29:27.920Z,20.6
2019-02-18T01:30:17.788Z,20.6
2019-02-18T01:31:07.873Z,20.6
2019-02-18T01:31:58.143Z,20.6
2019-02-18T01:32:48.998Z,20.6
2019-02-18T01:33:37.888Z,20.6
2019-02-18T01:34:28.835Z,20.6
2019-02-18T01:35:18.069Z,20.6
2019-02-18T01:36:08.137Z,20.6
2019-02-18T01:36:58.420Z,20.6
2019-02-18T01:37:52.582Z,20.6
2019-02-18T01:38:38.913Z,20.6
2019-02-18T01:39:28.883Z,20.5
2019-02-18T01:40:19.081Z,20.6
2019-02-18T01:41:09.322Z,20.6
2019-02-18T01:41:58.764Z,20.6
2019-02-18T01:42:49.396Z,20.6
2019-02-18T01:43:38.626Z,20.6
2019-02-18T01:44:29.294Z,20.6
2019-02-18T01:45:18.452Z,20.6
2019-02-18T01:46:09.375Z,20.6
2019-02-18T01:46:59.454Z,20.6
2019-02-18T01:47:49.190Z,20.6
2019-02-18T01:48:39.547Z,20.6
2019-02-18T01:49:28.506Z,20.6
2019-02-18T01:50:20.114Z,20.6
2019-02-18T01:51:09.697Z,20.6
2019-02-18T01:51:59.204Z,20.6
2019-02-18T01:52:49.574Z,20.5
2019-02-18T01:53:39.584Z,20.5
2019-02-18T01:54:28.817Z,20.5
2019-02-18T01:55:19.789Z,20.5
2019-02-18T01:56:10.308Z,20.5
2019-02-18T01:56:59.829Z,20.5
2019-02-18T01:57:50.419Z,20.5
2019-02-18T01:58:39.466Z,20.5
2019-02-18T01:59:29.684Z,20.5
2019-02-18T02:00:19.356Z,20.5
2019-02-18T02:01:09.907Z,20.5
2019-02-18T02:01:59.397Z,20.5
2019-02-18T02:02:50.148Z,20.5
2019-02-18T02:03:40.886Z,20.5
2019-02-18T02:04:29.871Z,20.5
2019-02-18T02:05:20.613Z,20.5
2019-02-18T02:06:10.183Z,20.5
2019-02-18T02:07:00.855Z,20.5
2019-02-18T02:08:01.622Z,20.5
2019-02-18T02:08:40.170Z,20.5
2019-02-18T02:09:29.906Z,20.5
2019-02-18T02:10:20.310Z,20.5
2019-02-18T02:11:10.041Z,20.5
2019-02-18T02:12:00.443Z,20.5
2019-02-18T02:12:51.768Z,20.5
2019-02-18T02:13:41.545Z,20.5
2019-02-18T02:14:30.602Z,20.5
2019-02-18T02:15:21.435Z,20.5
2019-02-18T02:16:11.403Z,20.5
2019-02-18T02:17:00.979Z,20.5
2019-02-18T02:17:51.261Z,20.5
2019-02-18T02:18:41.653Z,20.5
2019-02-18T02:19:31.661Z,20.4
2019-02-18T02:20:21.201Z,20.5
2019-02-18T02:21:11.336Z,20.5
2019-02-18T02:22:01.545Z,20.5
2019-02-18T02:22:51.882Z,20.5
2019-02-18T02:23:41.935Z,20.4
2019-02-18T02:24:31.731Z,20.4
2019-02-18T02:25:21.830Z,20.4
2019-02-18T02:26:12.420Z,20.4
2019-02-18T02:27:02.182Z,20.4
2019-02-18T02:27:52.235Z,20.4
2019-02-18T02:28:42.069Z,20.4
2019-02-18T02:29:31.868Z,20.4
2019-02-18T02:30:22.873Z,20.4
2019-02-18T02:31:12.631Z,20.4
2019-02-18T02:32:02.734Z,20.4
2019-02-18T02:32:52.611Z,20.4
2019-02-18T02:33:42.676Z,20.4
2019-02-18T02:34:32.527Z,20.4
2019-02-18T02:35:22.656Z,20.4
2019-02-18T02:36:13.131Z,20.4
2019-02-18T02:37:02.659Z,20.4
2019-02-18T02:37:52.755Z,20.4
2019-02-18T02:38:41.947Z,20.4
2019-02-18T02:39:33.739Z,20.4
2019-02-18T02:40:22.602Z,20.4
2019-02-18T02:41:13.207Z,20.4
2019-02-18T02:42:02.737Z,20.4
2019-02-18T02:42:53.401Z,20.4
2019-02-18T02:43:43.616Z,20.4
2019-02-18T02:44:33.774Z,20.4
2019-02-18T02:45:23.868Z,20.4
2019-02-18T02:46:13.876Z,20.4
2019-02-18T02:47:03.146Z,20.4
2019-02-18T02:47:53.334Z,20.4
2019-02-18T02:48:44.014Z,20.4
2019-02-18T02:49:33.930Z,20.4
2019-02-18T02:50:24.402Z,20.4
2019-02-18T02:51:14.580Z,20.4
2019-02-18T02:52:03.949Z,20.4
2019-02-18T02:52:53.521Z,20.4
2019-02-18T02:53:44.407Z,20.4
2019-02-18T02:54:33.428Z,20.4
2019-02-18T02:55:23.905Z,20.4
2019-02-18T02:56:14.070Z,20.4
2019-02-18T02:57:03.478Z,20.4
2019-02-18T02:57:53.560Z,20.4
2019-02-18T02:58:43.605Z,20.4
2019-02-18T02:59:33.716Z,20.4
2019-02-18T03:00:23.885Z,20.4
2019-02-18T03:01:15.193Z,20.4
2019-02-18T03:02:03.653Z,20.4
2019-02-18T03:02:54.234Z,20.4
2019-02-18T03:03:44.034Z,20.4
2019-02-18T03:04:33.842Z,20.4
2019-02-18T03:08:06.805Z,20.4
2019-02-18T03:08:56.417Z,20.4
2019-02-18T03:09:46.902Z,20.4
2019-02-18T03:10:36.674Z,20.4
2019-02-18T03:11:27.013Z,20.4
2019-02-18T03:12:16.550Z,20.4
2019-02-18T03:13:06.866Z,20.4
2019-02-18T03:13:57.164Z,20.4
2019-02-18T03:14:46.722Z,20.4
2019-02-18T03:15:37.349Z,20.4
2019-02-18T03:16:26.791Z,20.4
2019-02-18T03:17:16.718Z,20.4
2019-02-18T03:18:07.768Z,20.4
2019-02-18T03:18:57.283Z,20.4
2019-02-18T03:19:47.796Z,20.4
2019-02-18T03:20:37.574Z,20.4
2019-02-18T03:21:27.438Z,20.4
2019-02-18T03:22:17.381Z,20.4
2019-02-18T03:23:07.839Z,20.3
2019-02-18T03:23:58.246Z,20.3
2019-02-18T03:24:47.696Z,20.3
2019-02-18T03:25:38.449Z,20.3
2019-02-18T03:26:28.278Z,20.3
2019-02-18T03:27:18.153Z,20.3
2019-02-18T03:28:07.839Z,20.3
2019-02-18T03:28:58.682Z,20.3
2019-02-18T03:29:49.098Z,20.3
2019-02-18T03:30:38.481Z,20.4
2019-02-18T03:31:28.842Z,20.3
2019-02-18T03:32:18.881Z,20.3
2019-02-18T03:33:09.479Z,20.4
2019-02-18T03:33:59.191Z,20.3
2019-02-18T03:34:48.370Z,20.3
2019-02-18T03:35:39.485Z,20.3
2019-02-18T03:36:29.230Z,20.3
2019-02-18T03:37:18.798Z,20.4
2019-02-18T03:38:09.459Z,20.3
2019-02-18T03:38:59.445Z,20.3
2019-02-18T03:39:49.532Z,20.4
2019-02-18T03:40:39.509Z,20.3
2019-02-18T03:41:29.821Z,20.3
2019-02-18T03:42:19.662Z,20.3
2019-02-18T03:43:09.647Z,20.3
2019-02-18T03:43:59.757Z,20.3
2019-02-18T03:44:49.533Z,20.3
2019-02-18T03:45:39.348Z,20.3
2019-02-18T03:46:30.297Z,20.3
2019-02-18T03:47:18.954Z,20.3
2019-02-18T03:48:09.860Z,20.3
2019-02-18T03:49:00.110Z,20.3
2019-02-18T03:49:50.262Z,20.3
2019-02-18T03:50:40.148Z,20.3
2019-02-18T03:51:30.019Z,20.3
2019-02-18T03:52:20.315Z,20.3
2019-02-18T03:53:10.153Z,20.3
2019-02-18T03:54:00.414Z,20.3
2019-02-18T03:54:50.524Z,20.3
2019-02-18T03:55:40.337Z,20.3
2019-02-18T03:56:30.375Z,20.3
2019-02-18T03:57:20.150Z,20.3
2019-02-18T03:58:10.455Z,20.3
2019-02-18T03:59:00.047Z,20.3
2019-02-18T03:59:50.358Z,20.3
2019-02-18T04:00:40.367Z,20.3
2019-02-18T04:01:30.989Z,20.3
2019-02-18T04:02:20.756Z,20.3
2019-02-18T04:03:10.536Z,20.3
2019-02-18T04:04:00.649Z,20.3
2019-02-18T04:04:51.206Z,20.3
2019-02-18T04:05:40.961Z,20.3
2019-02-18T04:06:30.066Z,20.3
2019-02-18T04:07:21.381Z,20.3
2019-02-18T04:08:11.403Z,20.3
2019-02-18T04:09:01.514Z,20.3
2019-02-18T04:09:50.981Z,20.3
2019-02-18T04:10:41.391Z,20.3
2019-02-18T04:11:31.772Z,20.3
2019-02-18T04:12:21.170Z,20.3
2019-02-18T04:13:12.380Z,20.3
2019-02-18T04:14:02.218Z,20.3
2019-02-18T04:14:52.175Z,20.3
2019-02-18T04:15:41.650Z,20.3
2019-02-18T04:16:31.968Z,20.3
2019-02-18T04:17:21.235Z,20.3
2019-02-18T04:18:12.150Z,20.3
2019-02-18T04:19:02.203Z,20.3
2019-02-18T04:19:53.538Z,20.3
2019-02-18T04:20:42.355Z,20.3
2019-02-18T04:21:31.642Z,20.3
2019-02-18T04:22:21.810Z,20.3
2019-02-18T04:23:11.897Z,20.3
2019-02-18T04:24:01.945Z,20.3
2019-02-18T04:24:52.320Z,20.3
2019-02-18T04:25:42.552Z,20.3
2019-02-18T04:26:32.803Z,20.3
2019-02-18T04:27:22.463Z,20.3
2019-02-18T04:28:12.487Z,20.3
2019-02-18T04:29:02.583Z,20.2
2019-02-18T04:29:52.605Z,20.2
2019-02-18T04:30:43.017Z,20.2
2019-02-18T04:31:33.194Z,20.2
2019-02-18T04:32:23.357Z,20.2
2019-02-18T04:33:13.209Z,20.2
2019-02-18T04:34:03.214Z,20.2
2019-02-18T04:34:52.976Z,20.2
2019-02-18T04:35:43.321Z,20.2
2019-02-18T04:36:33.639Z,20.3
2019-02-18T04:37:23.730Z,20.2
2019-02-18T04:38:12.953Z,20.3
2019-02-18T04:39:03.250Z,20.3
2019-02-18T04:39:53.349Z,20.3
2019-02-18T04:40:43.149Z,20.3
2019-02-18T04:41:33.761Z,20.2
2019-02-18T04:42:24.039Z,20.3
2019-02-18T04:43:14.334Z,20.3
2019-02-18T04:44:03.946Z,20.3
2019-02-18T04:44:53.430Z,20.2
2019-02-18T04:45:43.551Z,20.2
2019-02-18T04:46:34.678Z,20.2
2019-02-18T04:47:24.476Z,20.3
2019-02-18T04:48:14.786Z,20.2
2019-02-18T04:49:04.578Z,20.2
2019-02-18T04:49:54.818Z,20.2
2019-02-18T04:50:44.658Z,20.2
2019-02-18T04:51:34.170Z,20.2
2019-02-18T04:52:24.213Z,20.2
2019-02-18T04:53:14.250Z,20.2
2019-02-18T04:54:04.599Z,20.2
2019-02-18T04:54:54.353Z,20.2
2019-02-18T04:55:44.388Z,20.2
2019-02-18T04:56:35.063Z,20.2
2019-02-18T04:57:25.191Z,20.2
2019-02-18T04:58:15.207Z,20.3
2019-02-18T04:59:04.686Z,20.2
2019-02-18T04:59:55.293Z,20.2
2019-02-18T05:00:44.277Z,20.2
2019-02-18T05:01:35.680Z,20.2
2019-02-18T05:02:25.469Z,20.3
2019-02-18T05:03:15.238Z,20.2
2019-02-18T05:04:05.171Z,20.2
2019-02-18T05:04:55.402Z,20.2
2019-02-18T05:05:45.683Z,20.2
2019-02-18T05:06:35.269Z,20.2
2019-02-18T05:07:26.093Z,20.2
2019-02-18T05:08:16.132Z,20.3
2019-02-18T05:09:11.950Z,20.2
2019-02-18T05:09:55.704Z,20.2
2019-02-18T05:10:46.319Z,20.2
2019-02-18T05:11:35.821Z,20.2
2019-02-18T05:12:25.870Z,20.2
2019-02-18T05:13:15.652Z,20.2
2019-02-18T05:14:06.027Z,20.2
2019-02-18T05:14:56.027Z,20.2
2019-02-18T05:15:46.745Z,20.2
2019-02-18T05:16:36.220Z,20.2
2019-02-18T05:17:25.658Z,20.2
2019-02-18T05:18:15.682Z,20.2
2019-02-18T05:19:06.073Z,20.2
2019-02-18T05:19:56.111Z,20.2
2019-02-18T05:20:46.477Z,20.2
2019-02-18T05:21:36.262Z,20.2
2019-02-18T05:22:26.297Z,20.1
2019-02-18T05:23:16.938Z,20.1
2019-02-18T05:24:06.489Z,20.2
2019-02-18T05:24:56.459Z,20.2
2019-02-18T05:25:46.588Z,20.2
2019-02-18T05:26:36.606Z,20.1
2019-02-18T05:27:38.722Z,20.1
2019-02-18T05:28:17.300Z,20.2
2019-02-18T05:29:07.087Z,20.2
2019-02-18T05:29:57.067Z,20.1
2019-02-18T05:30:46.938Z,20.2
2019-02-18T05:31:37.565Z,20.2
2019-02-18T05:32:27.077Z,20.1
2019-02-18T05:33:17.892Z,20.2
2019-02-18T05:34:07.489Z,20.2
2019-02-18T05:34:56.853Z,20.1
2019-02-18T05:35:47.184Z,20.2
2019-02-18T05:36:37.830Z,20.2
2019-02-18T05:37:26.942Z,20.2
2019-02-18T05:38:17.324Z,20.2
2019-02-18T05:39:19.632Z,20.2
2019-02-18T05:39:59.625Z,20.2
2019-02-18T05:40:47.658Z,20.2
2019-02-18T05:41:37.219Z,20.1
2019-02-18T05:42:27.889Z,20.1
2019-02-18T05:43:18.026Z,20.1
2019-02-18T05:44:07.326Z,20.1
2019-02-18T05:44:58.176Z,20.1
2019-02-18T05:45:47.925Z,20.1
2019-02-18T05:46:37.694Z,20.1
2019-02-18T05:47:27.554Z,20.1
2019-02-18T05:48:18.454Z,20.1
2019-02-18T05:49:07.647Z,20.1
2019-02-18T05:49:58.837Z,20.1
2019-02-18T05:50:48.212Z,20.1
2019-02-18T05:51:38.860Z,20.1
2019-02-18T05:52:28.174Z,20.1
2019-02-18T05:53:18.018Z,20.1
2019-02-18T05:54:08.774Z,20.1
2019-02-18T05:54:58.800Z,20.1
2019-02-18T05:55:48.638Z,20.1
2019-02-18T05:56:38.958Z,20.1
2019-02-18T05:57:29.478Z,20.1
2019-02-18T05:58:19.354Z,20.1
2019-02-18T05:59:09.139Z,20.1
2019-02-18T05:59:58.593Z,20.1
2019-02-18T06:00:48.725Z,20.1
2019-02-18T06:01:38.981Z,20.1
2019-02-18T06:02:29.471Z,20.1
2019-02-18T06:03:18.300Z,20.1
2019-02-18T06:04:09.730Z,20.1
2019-02-18T06:06:06.745Z,20.1
2019-02-18T06:06:57.695Z,20.1
2019-02-18T06:07:47.812Z,20.1
2019-02-18T06:08:36.690Z,20.1
2019-02-18T06:09:36.129Z,20.1
2019-02-18T06:10:21.755Z,20.1
2019-02-18T06:11:07.016Z,20.1
2019-02-18T06:11:56.953Z,20.1
2019-02-18T06:12:46.837Z,20.1
2019-02-18T06:13:37.090Z,20.1
2019-02-18T06:14:27.664Z,20.1
2019-02-18T06:15:16.904Z,20.1
2019-02-18T06:16:07.744Z,20.1
2019-02-18T06:16:58.603Z,20.1
2019-02-18T06:17:48.609Z,20.1
2019-02-18T06:18:38.711Z,20.1
2019-02-18T06:19:28.019Z,20.1
2019-02-18T06:20:17.806Z,20.1
2019-02-18T06:21:07.799Z,20.1
2019-02-18T06:21:57.860Z,20.1
2019-02-18T06:22:48.768Z,20.1
2019-02-18T06:23:53.469Z,20.1
2019-02-18T06:24:28.186Z,20.1
2019-02-18T06:25:33.386Z,20.1
2019-02-18T06:26:09.175Z,20.1
2019-02-18T06:26:58.981Z,20.1
2019-02-18T06:27:48.323Z,20.1
2019-02-18T06:28:38.924Z,20.1
2019-02-18T06:29:29.246Z,20.1
2019-02-18T06:30:18.453Z,20.1
2019-02-18T06:31:09.383Z,20.1
2019-02-18T06:31:58.299Z,20.1
2019-02-18T06:32:49.267Z,20.1
2019-02-18T06:33:38.748Z,20.1
2019-02-18T06:34:29.620Z,20.1
2019-02-18T06:35:18.886Z,20.1
2019-02-18T06:36:09.121Z,20.1
2019-02-18T06:36:59.041Z,20.1
2019-02-18T06:37:49.143Z,20.1
2019-02-18T06:38:38.902Z,20.1
2019-02-18T06:39:41.839Z,20.1
2019-02-18T06:40:19.417Z,20.1
2019-02-18T06:41:08.589Z,20.1
2019-02-18T06:41:59.485Z,20.1
2019-02-18T06:42:49.058Z,20.1
2019-02-18T06:43:40.167Z,20.1
2019-02-18T06:44:28.863Z,20.1
2019-02-18T06:45:19.752Z,20.1
2019-02-18T06:46:09.505Z,20.1
2019-02-18T06:47:00.617Z,20.1
2019-02-18T06:47:49.647Z,20.1
2019-02-18T06:48:40.220Z,20.1
2019-02-18T06:49:30.070Z,20.1
2019-02-18T06:50:19.603Z,20.1
2019-02-18T06:51:10.591Z,20.1
2019-02-18T06:52:15.425Z,20.1
2019-02-18T06:52:49.927Z,20.1
2019-02-18T06:53:40.594Z,20.1
2019-02-18T06:54:45.592Z,20.1
2019-02-18T06:55:20.434Z,20.1
2019-02-18T06:56:10.221Z,20.1
2019-02-18T06:57:01.135Z,20.1
2019-02-18T06:57:50.874Z,20.1
2019-02-18T06:58:40.091Z,20.1
2019-02-18T06:59:30.699Z,20.1
2019-02-18T07:00:21.192Z,20.1
2019-02-18T07:01:10.849Z,20.1
2019-02-18T07:02:00.329Z,20.1
2019-02-18T07:02:51.506Z,20.1
2019-02-18T07:03:40.275Z,20.1
2019-02-18T07:06:06.716Z,20.1
2019-02-18T07:06:57.881Z,20.1
2019-02-18T07:07:46.886Z,20.1
2019-02-18T07:08:36.789Z,20.1
2019-02-18T07:09:26.976Z,20.1
2019-02-18T07:10:15.920Z,20.1
2019-02-18T07:11:07.959Z,20.1
2019-02-18T07:11:57.441Z,20.1
2019-02-18T07:12:47.756Z,20.1
2019-02-18T07:13:38.246Z,20.1
2019-02-18T07:14:27.633Z,20.1
2019-02-18T07:15:17.359Z,20.1
2019-02-18T07:16:08.014Z,20.1
2019-02-18T07:16:58.258Z,20.1
2019-02-18T07:17:47.803Z,20.1
2019-02-18T07:18:37.840Z,20.1
2019-02-18T07:19:59.752Z,20.1
2019-02-18T07:20:18.013Z,20.1
2019-02-18T07:21:06.928Z,20.1
2019-02-18T07:21:58.381Z,20.1
2019-02-18T07:22:48.965Z,20.1
2019-02-18T07:23:38.218Z,20.1
2019-02-18T07:24:28.378Z,20.1
2019-02-18T07:25:18.884Z,20.1
2019-02-18T07:26:08.378Z,20.1
2019-02-18T07:26:59.143Z,20.1
2019-02-18T07:27:48.768Z,20.1
2019-02-18T07:28:38.033Z,20.1
2019-02-18T07:29:28.342Z,20.1
2019-02-18T07:30:18.382Z,20.1
2019-02-18T07:31:09.038Z,20.1
2019-02-18T07:31:59.127Z,20.1
2019-02-18T07:32:48.606Z,20.1
2019-02-18T07:33:38.080Z,20.1
2019-02-18T07:34:29.416Z,20.1
2019-02-18T07:35:19.643Z,20.1
2019-02-18T07:36:09.359Z,20.1
2019-02-18T07:37:00.022Z,20.1
2019-02-18T07:38:03.320Z,20.1
2019-02-18T07:38:38.689Z,20.1
2019-02-18T07:39:28.527Z,20.1
2019-02-18T07:40:19.564Z,20.1
2019-02-18T07:41:09.945Z,20.1
2019-02-18T07:41:59.455Z,20.1
2019-02-18T07:42:49.829Z,20.1
2019-02-18T07:43:39.864Z,20.1
2019-02-18T07:44:29.674Z,20.1
2019-02-18T07:45:19.991Z,20.1
2019-02-18T07:46:09.986Z,20.1
2019-02-18T07:47:00.101Z,20.1
2019-02-18T07:47:49.596Z,20.1
2019-02-18T07:48:42.627Z,20.1
2019-02-18T07:49:30.029Z,20.1
2019-02-18T07:50:27.101Z,20.1
2019-02-18T07:51:13.849Z,20.1
2019-02-18T07:52:00.166Z,20.1
2019-02-18T07:52:49.396Z,20.1
2019-02-18T07:53:39.816Z,20.1
2019-02-18T07:54:30.646Z,20.1
2019-02-18T07:55:20.944Z,20.1
2019-02-18T07:56:10.762Z,20.1
2019-02-18T07:57:00.211Z,20.1
2019-02-18T07:57:50.583Z,20.1
2019-02-18T07:58:40.371Z,20.1
2019-02-18T07:59:29.912Z,20.1
2019-02-18T08:00:21.026Z,20.1
2019-02-18T08:01:10.872Z,20.1
2019-02-18T08:02:01.152Z,20.1
2019-02-18T08:02:51.248Z,20.1
2019-02-18T08:03:40.713Z,20.1
2019-02-18T08:04:30.738Z,20.1
2019-02-18T08:05:21.113Z,20.1
2019-02-18T08:06:10.580Z,20.1
2019-02-18T08:07:00.388Z,20.1
2019-02-18T08:07:51.535Z,20.1
2019-02-18T08:08:40.897Z,20.1
2019-02-18T08:09:30.835Z,20.1
2019-02-18T08:10:21.700Z,20.1
2019-02-18T08:11:10.518Z,20.1
2019-02-18T08:12:01.242Z,20.1
2019-02-18T08:12:50.481Z,20.1
2019-02-18T08:13:42.095Z,20.1
2019-02-18T08:14:32.047Z,20.1
2019-02-18T08:15:21.802Z,20.1
2019-02-18T08:16:10.457Z,20.1
2019-02-18T08:17:01.717Z,20.1
2019-02-18T08:17:51.464Z,20.1
2019-02-18T08:18:41.834Z,20.1
2019-02-18T08:19:32.350Z,20.1
2019-02-18T08:20:21.634Z,20.1
2019-02-18T08:21:11.121Z,20.1
2019-02-18T08:22:01.221Z,20.1
2019-02-18T08:22:52.099Z,20.1
2019-02-18T08:23:42.354Z,20.1
2019-02-18T08:24:31.966Z,20.1
2019-02-18T08:25:21.766Z,20.1
2019-02-18T08:26:11.827Z,20.1
2019-02-18T08:27:02.959Z,20.1
2019-02-18T08:27:52.159Z,20.1
2019-02-18T08:28:43.336Z,20.1
2019-02-18T08:29:33.033Z,20.1
2019-02-18T08:30:22.317Z,20.1
2019-02-18T08:31:12.591Z,20.1
2019-02-18T08:32:03.208Z,20.1
2019-02-18T08:32:52.697Z,20.1
2019-02-18T08:33:43.076Z,20.1
2019-02-18T08:34:33.089Z,20.1
2019-02-18T08:35:23.218Z,20.1
2019-02-18T08:36:12.678Z,20.1
2019-02-18T08:37:03.293Z,20.1
2019-02-18T08:37:53.763Z,20.1
2019-02-18T08:38:43.575Z,20.1
2019-02-18T08:39:33.750Z,20.1
2019-02-18T08:40:29.217Z,20.1
2019-02-18T08:41:12.823Z,20.1
2019-02-18T08:42:03.151Z,20.1
2019-02-18T08:42:53.208Z,20.1
2019-02-18T08:43:42.938Z,20.1
2019-02-18T08:44:33.793Z,20.1
2019-02-18T08:45:24.211Z,20.1
2019-02-18T08:46:13.651Z,20.1
2019-02-18T08:47:03.435Z,20.1
2019-02-18T08:47:53.216Z,20.1
2019-02-18T08:48:44.650Z,20.1
2019-02-18T08:49:34.517Z,20.1
2019-02-18T08:50:23.925Z,20.1
2019-02-18T08:51:14.070Z,20.1
2019-02-18T08:52:03.230Z,20.1
2019-02-18T08:52:53.830Z,20.1
2019-02-18T08:53:44.221Z,20.1
2019-02-18T08:54:33.542Z,20.1
2019-02-18T08:55:24.365Z,20.1
2019-02-18T08:56:15.157Z,20.1
2019-02-18T08:57:03.554Z,20.1
2019-02-18T08:57:54.700Z,20.1
2019-02-18T08:58:44.577Z,20.1
2019-02-18T08:59:34.823Z,20.1
2019-02-18T09:00:24.889Z,20.1
2019-02-18T09:01:15.226Z,20.1
2019-02-18T09:02:05.340Z,20.1
2019-02-18T09:02:55.642Z,20.1
2019-02-18T09:03:44.889Z,20.1
2019-02-18T09:04:35.478Z,20.1
2019-02-18T09:05:26.306Z,20.1
2019-02-18T09:06:14.706Z,20.1
2019-02-18T09:07:06.013Z,20.1
2019-02-18T09:07:54.651Z,20.1
2019-02-18T09:08:45.569Z,20.1
2019-02-18T09:09:35.508Z,20.1
2019-02-18T09:10:37.331Z,20.1
2019-02-18T09:11:16.239Z,20.1
2019-02-18T09:12:05.958Z,20.1
2019-02-18T09:12:55.521Z,20.1
2019-02-18T09:13:46.219Z,20.1
2019-02-18T09:14:35.591Z,20.1
2019-02-18T09:15:26.208Z,20.1
2019-02-18T09:16:16.251Z,20.1
2019-02-18T09:17:05.346Z,20.1
2019-02-18T09:17:56.196Z,20.1
2019-02-18T09:18:45.864Z,20.1
2019-02-18T09:19:36.008Z,20.1
2019-02-18T09:20:29.428Z,20.1
2019-02-18T09:21:15.545Z,20.1
2019-02-18T09:22:06.666Z,20.1
2019-02-18T09:22:55.970Z,20.1
2019-02-18T09:23:47.103Z,20.1
2019-02-18T09:24:36.818Z,20.1
2019-02-18T09:25:26.938Z,20.1
2019-02-18T09:26:15.905Z,20.1
2019-02-18T09:27:06.020Z,20.1
2019-02-18T09:27:57.177Z,20.1
2019-02-18T09:28:46.619Z,20.1
2019-02-18T09:29:36.360Z,20.1
2019-02-18T09:30:26.490Z,20.1
2019-02-18T09:31:16.540Z,20.1
2019-02-18T09:32:06.310Z,20.1
2019-02-18T09:32:56.405Z,20.1
2019-02-18T09:33:45.890Z,20.1
2019-02-18T09:34:36.825Z,20.1
2019-02-18T09:35:27.170Z,20.1
2019-02-18T09:36:16.652Z,20.1
2019-02-18T09:37:06.493Z,20.1
2019-02-18T09:37:56.894Z,20.1
2019-02-18T09:38:47.419Z,20.1
2019-02-18T09:39:37.326Z,20.1
2019-02-18T09:40:26.166Z,20.1
2019-02-18T09:41:16.698Z,20.1
2019-02-18T09:42:07.925Z,20.1
2019-02-18T09:42:56.629Z,20.1
2019-02-18T09:43:47.209Z,20.1
2019-02-18T09:44:36.617Z,20.1
2019-02-18T09:45:27.613Z,20.1
2019-02-18T09:46:17.854Z,20
2019-02-18T09:47:07.613Z,20
2019-02-18T09:47:59.656Z,20
2019-02-18T09:48:47.759Z,20
2019-02-18T09:49:38.384Z,20
2019-02-18T09:50:28.344Z,20
2019-02-18T09:51:18.524Z,20
2019-02-18T09:52:08.056Z,20
2019-02-18T09:52:57.791Z,20
2019-02-18T09:53:48.912Z,20
2019-02-18T09:54:38.115Z,20
2019-02-18T09:55:28.126Z,20
2019-02-18T09:56:18.316Z,20
2019-02-18T09:57:09.086Z,20
2019-02-18T09:57:58.373Z,20
2019-02-18T09:58:51.446Z,20
2019-02-18T09:59:39.538Z,20
2019-02-18T10:00:28.555Z,20
2019-02-18T10:01:19.166Z,20
2019-02-18T10:02:09.428Z,20
2019-02-18T10:02:58.925Z,20
2019-02-18T10:03:48.205Z,20
2019-02-18T10:04:39.680Z,20
2019-02-18T10:07:07.418Z,20
2019-02-18T10:07:56.362Z,20
2019-02-18T10:08:47.015Z,20
2019-02-18T10:09:36.473Z,20
2019-02-18T10:10:27.702Z,20
2019-02-18T10:11:16.853Z,20
2019-02-18T10:12:17.732Z,20
2019-02-18T10:13:00.249Z,20
2019-02-18T10:13:46.753Z,19.9
2019-02-18T10:14:37.356Z,20
2019-02-18T10:15:27.798Z,20
2019-02-18T10:16:17.534Z,20
2019-02-18T10:17:07.807Z,20
2019-02-18T10:17:57.624Z,20
2019-02-18T10:18:47.342Z,20
2019-02-18T10:19:36.947Z,19.9
2019-02-18T10:20:28.316Z,19.9
2019-02-18T10:21:17.844Z,19.9
2019-02-18T10:22:07.612Z,19.9
2019-02-18T10:22:57.654Z,20
2019-02-18T10:23:48.553Z,19.9
2019-02-18T10:24:38.052Z,20
2019-02-18T10:25:28.426Z,19.9
2019-02-18T10:26:17.923Z,19.9
2019-02-18T10:27:07.885Z,20
2019-02-18T10:27:58.804Z,19.9
2019-02-18T10:28:48.601Z,19.9
2019-02-18T10:29:38.637Z,19.9
2019-02-18T10:30:28.491Z,19.9
2019-02-18T10:31:18.529Z,19.9
2019-02-18T10:32:08.851Z,19.9
2019-02-18T10:32:58.631Z,19.9
2019-02-18T10:33:47.319Z,19.9
2019-02-18T10:34:37.691Z,20
2019-02-18T10:35:31.023Z,19.9
2019-02-18T10:36:18.556Z,19.9
2019-02-18T10:37:09.178Z,19.9
2019-02-18T10:38:01.884Z,19.9
2019-02-18T10:38:49.342Z,19.9
2019-02-18T10:39:38.868Z,19.9
2019-02-18T10:40:28.325Z,19.9
2019-02-18T10:41:21.699Z,19.9
2019-02-18T10:42:08.148Z,19.9
2019-02-18T10:42:59.683Z,19.9
2019-02-18T10:43:49.386Z,19.9
2019-02-18T10:44:39.248Z,19.9
2019-02-18T10:45:30.185Z,19.9
2019-02-18T10:46:19.607Z,19.9
2019-02-18T10:47:11.358Z,19.9
2019-02-18T10:48:00.313Z,19.9
2019-02-18T10:48:49.786Z,19.9
2019-02-18T10:49:39.826Z,19.9
2019-02-18T10:50:31.279Z,19.9
2019-02-18T10:51:19.777Z,19.9
2019-02-18T10:52:10.190Z,19.9
2019-02-18T10:53:00.332Z,19.9
2019-02-18T10:53:50.556Z,19.9
2019-02-18T10:54:40.595Z,19.9
2019-02-18T10:55:30.757Z,19.9
2019-02-18T10:56:22.672Z,19.9
2019-02-18T10:57:10.624Z,19.9
2019-02-18T10:58:00.147Z,19.9
2019-02-18T10:58:49.917Z,19.9
2019-02-18T10:59:40.505Z,19.9
2019-02-18T11:00:30.310Z,19.9
2019-02-18T11:01:20.095Z,19.9
2019-02-18T11:02:11.114Z,19.9
2019-02-18T11:03:00.182Z,19.9
2019-02-18T11:03:50.863Z,19.9
2019-02-18T11:04:40.342Z,19.9
2019-02-18T11:05:33.377Z,19.9
2019-02-18T11:06:21.314Z,19.9
2019-02-18T11:07:10.212Z,19.9
2019-02-18T11:08:01.185Z,19.9
2019-02-18T11:08:51.118Z,19.9
2019-02-18T11:09:41.169Z,19.9
2019-02-18T11:10:31.211Z,19.9
2019-02-18T11:11:23.551Z,19.9
2019-02-18T11:12:11.120Z,19.9
2019-02-18T11:13:03.766Z,19.9
2019-02-18T11:13:51.691Z,19.9
2019-02-18T11:14:41.049Z,19.9
2019-02-18T11:15:31.376Z,19.9